createdAt,value
2022-10-25T00:00:30.008Z,52.6
2022-10-25T00:01:46.304Z,44.9
2022-10-25T00:03:02.600Z,44.7
2022-10-25T00:04:18.898Z,44.3
2022-10-25T00:05:35.191Z,45.6
2022-10-25T00:06:51.495Z,45.1
2022-10-25T00:08:07.779Z,47.6
2022-10-25T00:09:23.096Z,44.9
2022-10-25T00:10:39.383Z,45.1
2022-10-25T00:11:55.678Z,44.6
2022-10-25T00:13:11.967Z,44.3
2022-10-25T00:14:28.275Z,44.3
2022-10-25T00:15:44.557Z,44.9
2022-10-25T00:17:00.855Z,45.1
2022-10-25T00:18:17.137Z,44.3
2022-10-25T00:19:33.442Z,44.4
2022-10-25T00:20:49.737Z,45.4
2022-10-25T00:22:06.025Z,47
2022-10-25T00:23:22.336Z,45.1
2022-10-25T00:24:38.609Z,44.6
2022-10-25T00:25:53.928Z,44.3
2022-10-25T00:27:10.214Z,44.6
2022-10-25T00:28:26.510Z,45.2
2022-10-25T00:29:42.810Z,45.2
2022-10-25T00:30:59.121Z,44.7
2022-10-25T00:32:15.393Z,45.9
2022-10-25T00:33:31.696Z,44.1
2022-10-25T00:34:47.983Z,45.2
2022-10-25T00:36:04.278Z,45.7
2022-10-25T00:37:20.577Z,45.6
2022-10-25T00:38:36.868Z,45.7
2022-10-25T00:39:53.169Z,44.4
2022-10-25T00:41:09.457Z,45.1
2022-10-25T00:42:24.761Z,42.8
2022-10-25T00:43:41.060Z,43.9
2022-10-25T00:44:57.355Z,44.6
2022-10-25T00:46:13.642Z,46.2
2022-10-25T00:47:29.942Z,44.7
2022-10-25T00:48:46.228Z,45.2
2022-10-25T00:50:02.531Z,47.8
2022-10-25T00:51:18.817Z,43.9
2022-10-25T00:52:35.132Z,44.3
2022-10-25T00:53:51.409Z,44.9
2022-10-25T00:55:07.705Z,44.7
2022-10-25T00:56:24.009Z,44.9
2022-10-25T00:57:40.297Z,44.9
2022-10-25T00:58:55.594Z,45.1
2022-10-25T01:00:11.000Z,45.9
2022-10-25T01:01:28.205Z,44.6
2022-10-25T01:02:44.481Z,43.8
2022-10-25T01:04:00.000Z,44.3
2022-10-25T01:05:17.081Z,44.1
2022-10-25T01:06:33.369Z,44.3
2022-10-25T01:07:49.667Z,46.2
2022-10-25T01:09:05.952Z,45.1
2022-10-25T01:10:22.247Z,49.7
2022-10-25T01:11:38.553Z,44.1
2022-10-25T01:12:54.846Z,43.9
2022-10-25T01:14:11.129Z,45.1
2022-10-25T01:15:26.438Z,44.1
2022-10-25T01:16:42.751Z,45.4
2022-10-25T01:17:59.034Z,44.6
2022-10-25T01:19:15.335Z,45.9
2022-10-25T01:20:31.623Z,45.1
2022-10-25T01:21:47.923Z,44.4
2022-10-25T01:23:04.202Z,44.9
2022-10-25T01:24:20.493Z,45.4
2022-10-25T01:25:36.788Z,45.6
2022-10-25T01:26:53.090Z,44.1
2022-10-25T01:28:09.385Z,45.1
2022-10-25T01:29:25.680Z,45.4
2022-10-25T01:30:41.980Z,44.6
2022-10-25T01:31:58.285Z,45.6
2022-10-25T01:33:13.575Z,48
2022-10-25T01:34:29.867Z,44.7
2022-10-25T01:35:46.170Z,44.9
2022-10-25T01:37:02.471Z,46
2022-10-25T01:38:18.745Z,44.3
2022-10-25T01:39:35.054Z,54.1
2022-10-25T01:40:51.340Z,45.7
2022-10-25T01:42:07.646Z,46.2
2022-10-25T01:43:23.922Z,47.2
2022-10-25T01:44:40.217Z,45.7
2022-10-25T01:45:56.522Z,46.4
2022-10-25T01:47:12.818Z,46.7
2022-10-25T01:48:29.098Z,45.9
2022-10-25T01:49:44.424Z,44.4
2022-10-25T01:51:00.706Z,45.1
2022-10-25T01:52:17.006Z,45.9
2022-10-25T01:53:33.289Z,44.7
2022-10-25T01:54:49.582Z,45.4
2022-10-25T01:56:05.876Z,45.6
2022-10-25T01:57:22.189Z,45.1
2022-10-25T01:58:38.477Z,46.7
2022-10-25T01:59:54.790Z,45.7
2022-10-25T02:01:11.055Z,47
2022-10-25T02:02:27.350Z,46.5
2022-10-25T02:03:43.643Z,45.9
2022-10-25T02:04:59.934Z,46.2
2022-10-25T02:06:15.261Z,45.6
2022-10-25T02:07:31.556Z,47.5
2022-10-25T02:08:47.835Z,48.3
2022-10-25T02:10:04.126Z,46.7
2022-10-25T02:11:20.432Z,48.3
2022-10-25T02:12:36.737Z,47.8
2022-10-25T02:13:53.014Z,46.7
2022-10-25T02:15:09.305Z,46.8
2022-10-25T02:16:25.600Z,48
2022-10-25T02:17:41.901Z,45.7
2022-10-25T02:18:58.198Z,45.7
2022-10-25T02:20:14.494Z,47.3
2022-10-25T02:21:30.789Z,46.8
2022-10-25T02:22:46.102Z,48.3
2022-10-25T02:24:02.395Z,46.2
2022-10-25T02:25:18.674Z,48.1
2022-10-25T02:26:34.971Z,46
2022-10-25T02:27:51.277Z,45.9
2022-10-25T02:29:07.558Z,45.9
2022-10-25T02:30:23.855Z,47.5
2022-10-25T02:31:40.158Z,56.7
2022-10-25T02:32:56.447Z,46.5
2022-10-25T02:34:12.740Z,45.7
2022-10-25T02:35:29.028Z,46.5
2022-10-25T02:36:45.339Z,49.4
2022-10-25T02:38:01.614Z,47.3
2022-10-25T02:39:16.934Z,45.6
2022-10-25T02:40:33.217Z,46.2
2022-10-25T02:41:49.524Z,46.7
2022-10-25T02:43:05.810Z,46.5
2022-10-25T02:44:22.111Z,46.4
2022-10-25T02:45:38.401Z,48
2022-10-25T02:46:54.689Z,46.4
2022-10-25T02:48:10.996Z,46.2
2022-10-25T02:49:27.276Z,46
2022-10-25T02:50:43.571Z,46.7
2022-10-25T02:51:59.885Z,46.5
2022-10-25T02:53:16.164Z,48.5
2022-10-25T02:54:32.455Z,50.2
2022-10-25T02:55:47.776Z,47.2
2022-10-25T02:57:04.058Z,49.4
2022-10-25T02:58:20.367Z,47
2022-10-25T02:59:36.660Z,48.1
2022-10-25T03:00:52.951Z,45.7
2022-10-25T03:02:09.251Z,46.8
2022-10-25T03:03:25.527Z,46.7
2022-10-25T03:04:41.825Z,47.2
2022-10-25T03:05:58.130Z,47.2
2022-10-25T03:07:14.410Z,49.3
2022-10-25T03:08:30.707Z,50.4
2022-10-25T03:09:47.000Z,46.4
2022-10-25T03:11:03.320Z,47.8
2022-10-25T03:12:19.587Z,47.2
2022-10-25T03:13:34.907Z,47.2
2022-10-25T03:14:51.199Z,47
2022-10-25T03:16:07.506Z,45.9
2022-10-25T03:17:23.792Z,46.8
2022-10-25T03:18:40.073Z,47.8
2022-10-25T03:19:56.373Z,47.5
2022-10-25T03:21:12.672Z,48
2022-10-25T03:22:28.955Z,48.1
2022-10-25T03:23:45.252Z,47.6
2022-10-25T03:25:01.560Z,49.7
2022-10-25T03:26:17.855Z,48.5
2022-10-25T03:27:34.133Z,48.3
2022-10-25T03:28:50.432Z,51.2
2022-10-25T03:30:05.753Z,48.3
2022-10-25T03:31:22.034Z,48.5
2022-10-25T03:32:38.342Z,48.1
2022-10-25T03:33:54.633Z,53.4
2022-10-25T03:35:09.939Z,49.4
2022-10-25T03:36:26.243Z,47.5
2022-10-25T03:37:42.539Z,47
2022-10-25T03:38:58.833Z,48.5
2022-10-25T03:40:15.113Z,48.5
2022-10-25T03:41:31.412Z,48.5
2022-10-25T03:42:47.710Z,48.1
2022-10-25T03:44:03.997Z,49.3
2022-10-25T03:45:20.313Z,48.5
2022-10-25T03:46:36.594Z,48.1
2022-10-25T03:47:52.881Z,49.6
2022-10-25T03:49:09.194Z,50.9
2022-10-25T03:50:25.466Z,48.5
2022-10-25T03:51:40.791Z,47.3
2022-10-25T03:52:57.071Z,48.5
2022-10-25T03:54:13.361Z,49.7
2022-10-25T03:55:29.662Z,49.9
2022-10-25T03:56:45.965Z,52.5
2022-10-25T03:58:02.252Z,48.3
2022-10-25T03:59:18.566Z,48.5
2022-10-25T04:00:34.847Z,49.9
2022-10-25T04:01:51.144Z,49.6
2022-10-25T04:03:07.421Z,48.8
2022-10-25T04:04:23.719Z,49.1
2022-10-25T04:05:40.023Z,48.8
2022-10-25T04:06:56.304Z,51.4
2022-10-25T04:08:11.632Z,51.2
2022-10-25T04:09:27.921Z,48.9
2022-10-25T04:10:44.204Z,49.4
2022-10-25T04:12:00.511Z,48.9
2022-10-25T04:13:16.809Z,48.8
2022-10-25T04:14:33.086Z,49.6
2022-10-25T04:15:49.407Z,49.7
2022-10-25T04:17:05.686Z,50.1
2022-10-25T04:18:21.972Z,49.3
2022-10-25T04:19:38.262Z,48.8
2022-10-25T04:20:54.571Z,52.8
2022-10-25T04:22:10.849Z,49.6
2022-10-25T04:23:27.161Z,48.1
2022-10-25T04:24:42.462Z,49.3
2022-10-25T04:25:58.753Z,49.7
2022-10-25T04:27:15.043Z,49.9
2022-10-25T04:28:31.335Z,49.6
2022-10-25T04:29:47.628Z,48.8
2022-10-25T04:31:03.926Z,50.7
2022-10-25T04:32:20.228Z,50.1
2022-10-25T04:33:36.517Z,50.7
2022-10-25T04:34:52.835Z,49.9
2022-10-25T04:36:09.101Z,49.9
2022-10-25T04:37:25.395Z,50.4
2022-10-25T04:38:41.689Z,51.2
2022-10-25T04:39:58.005Z,49.7
2022-10-25T04:41:13.000Z,51.5
2022-10-25T04:42:29.610Z,50.4
2022-10-25T04:43:45.888Z,49.6
2022-10-25T04:45:02.191Z,49.6
2022-10-25T04:46:18.477Z,50.4
2022-10-25T04:47:34.763Z,49.6
2022-10-25T04:48:51.074Z,49.6
2022-10-25T04:50:07.375Z,49.1
2022-10-25T04:51:23.662Z,50.5
2022-10-25T04:52:39.939Z,49.9
2022-10-25T04:53:56.249Z,49.7
2022-10-25T04:55:12.543Z,49.9
2022-10-25T04:56:28.837Z,50.1
2022-10-25T04:57:44.150Z,51
2022-10-25T04:59:00.432Z,52.8
2022-10-25T05:00:16.739Z,53
2022-10-25T05:01:33.020Z,48.9
2022-10-25T05:02:49.314Z,50.7
2022-10-25T05:04:05.606Z,51
2022-10-25T05:05:21.931Z,51
2022-10-25T05:06:38.214Z,50.7
2022-10-25T05:07:54.501Z,51.4
2022-10-25T05:09:10.795Z,51
2022-10-25T05:10:27.087Z,49.6
2022-10-25T05:11:43.382Z,53.8
2022-10-25T05:12:59.664Z,50.4
2022-10-25T05:14:14.938Z,50.7
2022-10-25T05:15:31.231Z,51.4
2022-10-25T05:16:47.480Z,50.2
2022-10-25T05:18:03.724Z,49.6
2022-10-25T05:19:19.948Z,50.7
2022-10-25T05:20:36.187Z,51.2
2022-10-25T05:21:52.443Z,53.1
2022-10-25T05:23:08.685Z,51.2
2022-10-25T05:24:24.933Z,51.8
2022-10-25T05:25:41.172Z,52
2022-10-25T05:26:57.415Z,51.2
2022-10-25T05:28:13.664Z,51.4
2022-10-25T05:29:29.901Z,52.3
2022-10-25T05:30:45.163Z,52.5
2022-10-25T05:32:01.408Z,51
2022-10-25T05:33:17.649Z,52
2022-10-25T05:34:33.885Z,51.8
2022-10-25T05:35:50.121Z,50.4
2022-10-25T05:37:06.351Z,51
2022-10-25T05:38:22.608Z,49.9
2022-10-25T05:39:38.839Z,50.4
2022-10-25T05:40:55.090Z,52.3
2022-10-25T05:42:11.329Z,51.8
2022-10-25T05:43:27.571Z,50.1
2022-10-25T05:44:43.790Z,49.7
2022-10-25T05:46:00.041Z,51.4
2022-10-25T05:47:15.281Z,50.9
2022-10-25T05:48:31.543Z,56.7
2022-10-25T05:49:47.761Z,50.7
2022-10-25T05:51:04.018Z,61.7
2022-10-25T05:52:20.248Z,50.1
2022-10-25T05:53:36.506Z,51
2022-10-25T05:54:52.737Z,51.8
2022-10-25T05:56:08.963Z,51.4
2022-10-25T05:57:25.209Z,50.2
2022-10-25T05:58:41.457Z,50.4
2022-10-25T05:59:57.683Z,51.8
2022-10-25T06:01:13.941Z,50.4
2022-10-25T06:02:30.190Z,50.4
2022-10-25T06:03:45.439Z,49.9
2022-10-25T06:05:01.676Z,50.1
2022-10-25T06:06:17.908Z,48.9
2022-10-25T06:07:34.150Z,50.4
2022-10-25T06:08:50.409Z,49.4
2022-10-25T06:10:06.620Z,51
2022-10-25T06:11:22.884Z,50.2
2022-10-25T06:12:39.113Z,50.4
2022-10-25T06:13:55.368Z,49.1
2022-10-25T06:15:11.597Z,50.7
2022-10-25T06:16:27.851Z,49.4
2022-10-25T06:17:44.095Z,50.7
2022-10-25T06:19:00.301Z,49.7
2022-10-25T06:20:15.566Z,50.1
2022-10-25T06:21:31.807Z,49.4
2022-10-25T06:22:48.047Z,50.2
2022-10-25T06:24:04.295Z,49.7
2022-10-25T06:25:20.528Z,49.4
2022-10-25T06:26:36.781Z,49.3
2022-10-25T06:27:53.013Z,48.9
2022-10-25T06:29:09.256Z,49.1
2022-10-25T06:30:25.499Z,48.6
2022-10-25T06:31:41.727Z,49.1
2022-10-25T06:32:57.993Z,49.1
2022-10-25T06:34:14.202Z,48.6
2022-10-25T06:35:30.460Z,49.3
2022-10-25T06:36:45.703Z,48.8
2022-10-25T06:38:01.939Z,49.4
2022-10-25T06:39:18.208Z,51.7
2022-10-25T06:40:34.420Z,48.8
2022-10-25T06:41:50.662Z,48.5
2022-10-25T06:43:06.913Z,58.4
2022-10-25T06:44:23.148Z,48.5
2022-10-25T06:45:39.378Z,48.5
2022-10-25T06:46:55.636Z,51.7
2022-10-25T06:48:11.874Z,51
2022-10-25T06:49:28.114Z,50.5
2022-10-25T06:50:44.349Z,48.8
2022-10-25T06:52:00.587Z,49.4
2022-10-25T06:53:15.849Z,48.8
2022-10-25T06:54:32.098Z,49.7
2022-10-25T06:55:48.336Z,48.6
2022-10-25T06:57:04.562Z,48.5
2022-10-25T06:58:20.802Z,56.7
2022-10-25T06:59:37.061Z,48.9
2022-10-25T07:00:53.295Z,48.9
2022-10-25T07:02:09.520Z,49.9
2022-10-25T07:03:25.758Z,49.4
2022-10-25T07:04:42.024Z,50.4
2022-10-25T07:05:58.251Z,50.4
2022-10-25T07:07:14.499Z,50.4
2022-10-25T07:08:30.717Z,49.1
2022-10-25T07:09:45.988Z,48.9
2022-10-25T07:11:02.236Z,50.5
2022-10-25T07:12:18.461Z,49.4
2022-10-25T07:13:34.698Z,51.5
2022-10-25T07:14:50.950Z,51.8
2022-10-25T07:16:07.179Z,49.9
2022-10-25T07:17:23.417Z,52
2022-10-25T07:18:39.652Z,49.3
2022-10-25T07:19:55.911Z,48.5
2022-10-25T07:21:12.142Z,53.6
2022-10-25T07:22:28.405Z,50.1
2022-10-25T07:23:44.631Z,49.4
2022-10-25T07:25:00.877Z,48.8
2022-10-25T07:26:16.120Z,48.5
2022-10-25T07:27:32.365Z,47.6
2022-10-25T07:28:48.608Z,49.3
2022-10-25T07:30:04.849Z,49.9
2022-10-25T07:31:21.086Z,48.1
2022-10-25T07:32:37.328Z,50.4
2022-10-25T07:33:53.567Z,49.9
2022-10-25T07:35:09.815Z,60.1
2022-10-25T07:36:26.046Z,51.5
2022-10-25T07:37:42.280Z,48.8
2022-10-25T07:38:58.522Z,48.9
2022-10-25T07:40:14.777Z,48.9
2022-10-25T07:41:30.990Z,50.1
2022-10-25T07:42:46.251Z,49.9
2022-10-25T07:44:02.513Z,48.6
2022-10-25T07:45:18.747Z,49.6
2022-10-25T07:46:34.967Z,49.7
2022-10-25T07:47:51.212Z,47
2022-10-25T07:49:07.465Z,48.5
2022-10-25T07:50:22.727Z,53.1
2022-10-25T07:51:38.947Z,50.1
2022-10-25T07:52:55.189Z,49.1
2022-10-25T07:54:11.445Z,47.2
2022-10-25T07:55:27.684Z,49.9
2022-10-25T07:56:43.928Z,48
2022-10-25T07:58:00.168Z,53.4
2022-10-25T07:59:16.398Z,51
2022-10-25T08:00:32.645Z,49.1
2022-10-25T08:01:48.876Z,55.1
2022-10-25T08:03:05.119Z,48.3
2022-10-25T08:04:21.365Z,47.6
2022-10-25T08:05:37.605Z,48
2022-10-25T08:06:52.848Z,47.3
2022-10-25T08:08:09.102Z,47.6
2022-10-25T08:09:25.326Z,50.7
2022-10-25T08:10:41.577Z,47.5
2022-10-25T08:11:57.822Z,53.3
2022-10-25T08:13:14.062Z,50.7
2022-10-25T08:14:30.283Z,51.2
2022-10-25T08:15:46.530Z,47.8
2022-10-25T08:17:02.778Z,48.9
2022-10-25T08:18:19.005Z,53
2022-10-25T08:19:35.244Z,48.8
2022-10-25T08:20:51.499Z,46.8
2022-10-25T08:22:07.739Z,46.8
2022-10-25T08:23:22.984Z,52
2022-10-25T08:24:39.237Z,47
2022-10-25T08:25:55.477Z,47.8
2022-10-25T08:27:11.711Z,48.3
2022-10-25T08:28:27.948Z,49.9
2022-10-25T08:29:44.197Z,53.6
2022-10-25T08:31:00.455Z,47.5
2022-10-25T08:32:16.667Z,47
2022-10-25T08:33:32.920Z,50.7
2022-10-25T08:34:49.167Z,46.7
2022-10-25T08:36:05.383Z,52.6
2022-10-25T08:37:21.622Z,47.5
2022-10-25T08:38:37.874Z,46.7
2022-10-25T08:39:53.122Z,49.9
2022-10-25T08:41:09.369Z,53.8
2022-10-25T08:42:25.600Z,53.8
2022-10-25T08:43:41.846Z,49.4
2022-10-25T08:44:58.077Z,47.6
2022-10-25T08:46:14.317Z,47
2022-10-25T08:47:30.556Z,49.9
2022-10-25T08:48:46.810Z,48.1
2022-10-25T08:50:03.052Z,45.7
2022-10-25T08:51:19.278Z,50.2
2022-10-25T08:52:35.531Z,49.1
2022-10-25T08:53:51.774Z,45.7
2022-10-25T08:55:07.997Z,48.1
2022-10-25T08:56:23.251Z,48.9
2022-10-25T08:57:39.491Z,48
2022-10-25T08:58:55.754Z,46.2
2022-10-25T09:00:11.992Z,48
2022-10-25T09:01:28.239Z,50.4
2022-10-25T09:02:44.466Z,46.8
2022-10-25T09:04:00.697Z,58.3
2022-10-25T09:05:16.936Z,57.8
2022-10-25T09:06:33.191Z,50.5
2022-10-25T09:07:49.424Z,47.8
2022-10-25T09:09:05.668Z,51
2022-10-25T09:10:21.902Z,45.9
2022-10-25T09:11:38.168Z,46.4
2022-10-25T09:12:53.388Z,46
2022-10-25T09:14:09.645Z,45.6
2022-10-25T09:15:25.887Z,45.9
2022-10-25T09:16:42.126Z,48.3
2022-10-25T09:17:58.358Z,48.8
2022-10-25T09:19:14.594Z,50.1
2022-10-25T09:20:30.832Z,46.2
2022-10-25T09:21:47.088Z,45.6
2022-10-25T09:23:03.311Z,47.3
2022-10-25T09:24:19.567Z,46.2
2022-10-25T09:25:35.797Z,48.1
2022-10-25T09:26:52.032Z,48.5
2022-10-25T09:28:08.277Z,51.5
2022-10-25T09:29:23.547Z,53.3
2022-10-25T09:30:39.782Z,49.4
2022-10-25T09:31:56.011Z,47.6
2022-10-25T09:33:12.247Z,47.8
2022-10-25T09:34:28.512Z,52.2
2022-10-25T09:35:44.732Z,52.2
2022-10-25T09:37:00.965Z,46.8
2022-10-25T09:38:17.239Z,47
2022-10-25T09:39:33.463Z,53
2022-10-25T09:40:49.691Z,53.6
2022-10-25T09:42:05.934Z,58.9
2022-10-25T09:43:22.184Z,48.1
2022-10-25T09:44:38.415Z,58.1
2022-10-25T09:45:53.666Z,51.7
2022-10-25T09:47:09.914Z,46.7
2022-10-25T09:48:26.144Z,50.4
2022-10-25T09:49:42.396Z,61.8
2022-10-25T09:50:58.628Z,48
2022-10-25T09:52:14.874Z,51.4
2022-10-25T09:53:31.102Z,52.2
2022-10-25T09:54:47.346Z,47.6
2022-10-25T09:56:03.597Z,49.1
2022-10-25T09:57:19.823Z,49.7
2022-10-25T09:58:36.071Z,47.5
2022-10-25T09:59:52.327Z,47.2
2022-10-25T10:01:08.539Z,49.6
2022-10-25T10:02:23.819Z,46.2
2022-10-25T10:03:40.054Z,58.3
2022-10-25T10:04:56.294Z,46.5
2022-10-25T10:06:12.534Z,50.2
2022-10-25T10:07:28.773Z,51
2022-10-25T10:08:44.996Z,47
2022-10-25T10:10:01.266Z,47
2022-10-25T10:11:17.483Z,53
2022-10-25T10:12:33.742Z,46
2022-10-25T10:13:49.960Z,52.2
2022-10-25T10:15:06.219Z,48.3
2022-10-25T10:16:22.438Z,58.6
2022-10-25T10:17:38.688Z,49.4
2022-10-25T10:18:53.949Z,51.2
2022-10-25T10:20:10.191Z,47.2
2022-10-25T10:21:26.441Z,45.6
2022-10-25T10:22:42.688Z,55.5
2022-10-25T10:23:58.891Z,46.4
2022-10-25T10:25:15.134Z,47.3
2022-10-25T10:26:31.385Z,48.3
2022-10-25T10:27:47.625Z,49.4
2022-10-25T10:29:03.868Z,47.3
2022-10-25T10:30:20.102Z,49.6
2022-10-25T10:31:36.337Z,61
2022-10-25T10:32:52.575Z,65.4
2022-10-25T10:34:08.000Z,64.7
2022-10-25T10:35:24.084Z,48.3
2022-10-25T10:36:40.339Z,50.7
2022-10-25T10:37:56.555Z,48.5
2022-10-25T10:39:12.804Z,49.3
2022-10-25T10:40:29.045Z,50.5
2022-10-25T10:41:45.268Z,64.6
2022-10-25T10:43:01.514Z,62.6
2022-10-25T10:44:17.762Z,62
2022-10-25T10:45:34.000Z,66
2022-10-25T10:46:50.228Z,65
2022-10-25T10:48:06.488Z,66
2022-10-25T10:49:22.720Z,68.8
2022-10-25T10:50:38.961Z,66
2022-10-25T10:51:54.220Z,65
2022-10-25T10:53:10.472Z,64.2
2022-10-25T10:54:26.702Z,69.6
2022-10-25T10:55:42.944Z,64.6
2022-10-25T10:56:59.168Z,66.3
2022-10-25T10:58:15.412Z,67.6
2022-10-25T10:59:31.653Z,67.1
2022-10-25T11:00:47.888Z,66.5
2022-10-25T11:02:04.140Z,60.5
2022-10-25T11:03:20.373Z,61.7
2022-10-25T11:04:36.613Z,66.7
2022-10-25T11:05:52.847Z,69.1
2022-10-25T11:07:09.087Z,66
2022-10-25T11:08:24.344Z,68.1
2022-10-25T11:09:40.596Z,65.9
2022-10-25T11:10:56.838Z,64.4
2022-10-25T11:12:13.075Z,64.7
2022-10-25T11:13:29.302Z,66.8
2022-10-25T11:14:45.549Z,65
2022-10-25T11:16:01.788Z,67.6
2022-10-25T11:17:18.000Z,65.7
2022-10-25T11:18:34.268Z,63.3
2022-10-25T11:19:50.512Z,66.8
2022-10-25T11:21:06.752Z,65.9
2022-10-25T11:22:22.994Z,46.7
2022-10-25T11:23:39.221Z,44.6
2022-10-25T11:24:54.497Z,49.1
2022-10-25T11:26:10.724Z,51.4
2022-10-25T11:27:26.959Z,48.5
2022-10-25T11:28:43.200Z,45.9
2022-10-25T11:29:59.452Z,50.2
2022-10-25T11:31:15.682Z,45.4
2022-10-25T11:32:31.922Z,45.2
2022-10-25T11:33:48.164Z,44.9
2022-10-25T11:35:04.403Z,44.7
2022-10-25T11:36:20.656Z,44.6
2022-10-25T11:37:36.880Z,45.2
2022-10-25T11:38:53.134Z,46.7
2022-10-25T11:40:09.369Z,50.4
2022-10-25T11:41:24.620Z,45.2
2022-10-25T11:42:40.868Z,47.5
2022-10-25T11:43:57.104Z,45.7
2022-10-25T11:45:13.335Z,45.4
2022-10-25T11:46:29.574Z,46
2022-10-25T11:47:45.830Z,44.9
2022-10-25T11:49:02.060Z,44.9
2022-10-25T11:50:18.313Z,45.1
2022-10-25T11:51:34.538Z,54.6
2022-10-25T11:52:50.777Z,53.6
2022-10-25T11:54:07.021Z,59.9
2022-10-25T11:55:23.269Z,51
2022-10-25T11:56:39.505Z,49.9
2022-10-25T11:57:54.756Z,45.6
2022-10-25T11:59:10.989Z,44.6
2022-10-25T12:00:27.245Z,47.8
2022-10-25T12:01:43.472Z,48.9
2022-10-25T12:02:59.720Z,50.7
2022-10-25T12:04:15.953Z,45.4
2022-10-25T12:05:31.230Z,44.1
2022-10-25T12:06:47.465Z,52.8
2022-10-25T12:08:03.697Z,48.8
2022-10-25T12:09:19.945Z,47.8
2022-10-25T12:10:36.185Z,45.2
2022-10-25T12:11:52.417Z,45.6
2022-10-25T12:13:08.663Z,46.2
2022-10-25T12:14:24.899Z,44.7
2022-10-25T12:15:41.133Z,54.4
2022-10-25T12:16:57.376Z,46.5
2022-10-25T12:18:13.610Z,48
2022-10-25T12:19:29.870Z,51.5
2022-10-25T12:20:46.096Z,54.3
2022-10-25T12:22:01.351Z,48
2022-10-25T12:23:17.592Z,47.5
2022-10-25T12:24:33.840Z,45.6
2022-10-25T12:25:50.072Z,52.2
2022-10-25T12:27:06.309Z,46
2022-10-25T12:28:22.560Z,46
2022-10-25T12:29:38.804Z,45.4
2022-10-25T12:30:55.030Z,49.1
2022-10-25T12:32:11.285Z,51.7
2022-10-25T12:34:43.758Z,49.3
2022-10-25T12:36:00.021Z,52.2
2022-10-25T12:37:16.264Z,46.2
2022-10-25T12:38:31.518Z,50.2
2022-10-25T12:39:47.752Z,46.7
2022-10-25T12:41:03.995Z,48.8
2022-10-25T12:42:20.234Z,45.9
2022-10-25T12:43:36.475Z,46.7
2022-10-25T12:44:52.723Z,57
2022-10-25T12:46:08.969Z,45.4
2022-10-25T12:47:25.205Z,45.7
2022-10-25T12:48:41.443Z,44.9
2022-10-25T12:49:57.688Z,48.3
2022-10-25T12:51:13.939Z,45.2
2022-10-25T12:52:30.171Z,47.5
2022-10-25T12:53:46.418Z,52.3
2022-10-25T12:55:01.663Z,49.7
2022-10-25T12:56:17.897Z,45.6
2022-10-25T12:57:34.140Z,46
2022-10-25T12:58:50.388Z,45.7
2022-10-25T13:00:06.627Z,45.7
2022-10-25T13:01:22.860Z,51.4
2022-10-25T13:02:39.104Z,44.7
2022-10-25T13:03:55.344Z,44.9
2022-10-25T13:05:11.582Z,45.7
2022-10-25T13:06:27.829Z,46.2
2022-10-25T13:07:44.058Z,51
2022-10-25T13:09:00.310Z,46
2022-10-25T13:10:16.545Z,46.7
2022-10-25T13:12:48.050Z,45.7
2022-10-25T13:14:04.273Z,46.2
2022-10-25T13:15:20.516Z,46.2
2022-10-25T13:16:36.765Z,45.4
2022-10-25T13:17:53.000Z,48.8
2022-10-25T13:19:09.251Z,44.7
2022-10-25T13:20:25.484Z,45.4
2022-10-25T13:21:41.714Z,44.7
2022-10-25T13:22:57.959Z,47.8
2022-10-25T13:24:14.202Z,49.4
2022-10-25T13:25:30.453Z,46.4
2022-10-25T13:26:46.675Z,49.6
2022-10-25T13:28:01.935Z,47.3
2022-10-25T13:29:18.179Z,46
2022-10-25T13:30:34.413Z,45.6
2022-10-25T13:31:50.651Z,44.6
2022-10-25T13:33:06.894Z,45.6
2022-10-25T13:34:23.136Z,44.9
2022-10-25T13:35:39.386Z,47
2022-10-25T13:36:55.626Z,45.9
2022-10-25T13:38:11.863Z,45.6
2022-10-25T13:39:28.113Z,48.6
2022-10-25T13:40:44.343Z,48.8
2022-10-25T13:42:00.593Z,46.8
2022-10-25T13:43:16.840Z,44.9
2022-10-25T13:44:32.081Z,45.7
2022-10-25T13:45:48.321Z,45.4
2022-10-25T13:47:04.561Z,45.6
2022-10-25T13:48:20.796Z,45.2
2022-10-25T13:49:37.044Z,45.6
2022-10-25T13:50:53.287Z,44.6
2022-10-25T13:52:09.534Z,44.9
2022-10-25T13:53:25.764Z,46
2022-10-25T13:54:41.996Z,45.2
2022-10-25T13:55:58.241Z,47.6
2022-10-25T13:57:14.489Z,45.1
2022-10-25T13:58:30.731Z,45.7
2022-10-25T13:59:46.976Z,46
2022-10-25T14:01:02.226Z,45.2
2022-10-25T14:02:18.463Z,57.6
2022-10-25T14:03:34.696Z,45.2
2022-10-25T14:04:50.952Z,46.2
2022-10-25T14:06:07.175Z,45.2
2022-10-25T14:07:23.420Z,48.6
2022-10-25T14:08:39.658Z,47.2
2022-10-25T14:09:55.902Z,45.1
2022-10-25T14:11:12.147Z,45.7
2022-10-25T14:12:28.375Z,46.7
2022-10-25T14:13:44.617Z,46.2
2022-10-25T14:15:00.869Z,45.4
2022-10-25T14:16:17.111Z,46.4
2022-10-25T14:17:32.353Z,50.1
2022-10-25T14:18:48.600Z,48.6
2022-10-25T14:20:04.845Z,46.2
2022-10-25T14:21:21.071Z,46.7
2022-10-25T14:22:37.310Z,46.2
2022-10-25T14:23:53.558Z,46.4
2022-10-25T14:25:09.795Z,45.1
2022-10-25T14:26:26.050Z,47.6
2022-10-25T14:27:42.270Z,47
2022-10-25T14:28:58.523Z,47.6
2022-10-25T14:30:14.765Z,45.9
2022-10-25T14:31:30.998Z,48
2022-10-25T14:32:47.238Z,48.9
2022-10-25T14:34:02.498Z,49.9
2022-10-25T14:35:18.726Z,47
2022-10-25T14:36:34.968Z,46.2
2022-10-25T14:37:51.221Z,45.2
2022-10-25T14:39:07.453Z,45.9
2022-10-25T14:40:23.695Z,45.7
2022-10-25T14:41:39.935Z,48
2022-10-25T14:42:56.169Z,45.4
2022-10-25T14:44:12.419Z,60.1
2022-10-25T14:45:28.650Z,46.4
2022-10-25T14:46:44.898Z,47.2
2022-10-25T14:48:01.132Z,45.2
2022-10-25T14:49:17.374Z,46.7
2022-10-25T14:50:32.641Z,45.6
2022-10-25T14:51:48.869Z,48.6
2022-10-25T14:53:05.115Z,44.3
2022-10-25T14:54:21.344Z,49.1
2022-10-25T14:55:37.594Z,45.1
2022-10-25T14:56:53.827Z,45.2
2022-10-25T14:58:10.069Z,45.9
2022-10-25T14:59:26.322Z,48
2022-10-25T15:00:42.556Z,45.6
2022-10-25T15:01:58.794Z,45.6
2022-10-25T15:03:15.022Z,52.6
2022-10-25T15:04:31.272Z,45.4
2022-10-25T15:07:03.750Z,51.2
2022-10-25T15:08:19.003Z,48.1
2022-10-25T15:09:35.246Z,46
2022-10-25T15:10:51.484Z,45.4
2022-10-25T15:12:07.724Z,44.3
2022-10-25T15:13:23.962Z,47.3
2022-10-25T15:14:40.198Z,49.7
2022-10-25T15:15:56.443Z,46
2022-10-25T15:17:12.680Z,46.4
2022-10-25T15:18:28.924Z,47
2022-10-25T15:19:45.175Z,47.6
2022-10-25T15:21:01.413Z,44.9
2022-10-25T15:22:17.644Z,44.9
2022-10-25T15:23:33.886Z,50.7
2022-10-25T15:24:49.149Z,54.1
2022-10-25T15:26:05.374Z,44.7
2022-10-25T15:27:21.635Z,47
2022-10-25T15:28:37.864Z,45.2
2022-10-25T15:29:54.108Z,46
2022-10-25T15:31:10.334Z,46.2
2022-10-25T15:32:26.587Z,46
2022-10-25T15:33:42.830Z,45.7
2022-10-25T15:34:59.068Z,45.2
2022-10-25T15:36:15.300Z,44.6
2022-10-25T15:37:31.547Z,44.9
2022-10-25T15:38:47.786Z,46
2022-10-25T15:40:04.018Z,44.7
2022-10-25T15:41:19.272Z,44.6
2022-10-25T15:42:35.529Z,47.8
2022-10-25T15:43:51.770Z,44.7
2022-10-25T15:45:07.990Z,45.9
2022-10-25T15:46:24.247Z,45.4
2022-10-25T15:47:40.481Z,46.7
2022-10-25T15:48:56.716Z,45.6
2022-10-25T15:50:12.958Z,45.4
2022-10-25T15:51:29.211Z,44.4
2022-10-25T15:52:45.431Z,45.1
2022-10-25T15:54:01.680Z,45.7
2022-10-25T15:55:17.928Z,45.1
2022-10-25T15:56:34.165Z,46.2
2022-10-25T15:57:49.411Z,44.7
2022-10-25T15:59:05.651Z,44.9
2022-10-25T16:00:21.899Z,45.2
2022-10-25T16:01:38.132Z,46.8
2022-10-25T16:02:54.370Z,49.7
2022-10-25T16:04:10.615Z,46.5
2022-10-25T16:05:26.869Z,56
2022-10-25T16:06:43.093Z,44.6
2022-10-25T16:07:59.342Z,44.6
2022-10-25T16:09:15.577Z,44.7
2022-10-25T16:10:31.822Z,45.6
2022-10-25T16:11:48.059Z,45.4
2022-10-25T16:13:04.307Z,45.6
2022-10-25T16:14:19.553Z,46.2
2022-10-25T16:15:35.796Z,44.9
2022-10-25T16:16:52.027Z,46.8
2022-10-25T16:18:08.276Z,44.6
2022-10-25T16:19:24.515Z,45.1
2022-10-25T16:20:39.777Z,46.7
2022-10-25T16:21:56.012Z,44.6
2022-10-25T16:23:12.256Z,45.2
2022-10-25T16:24:28.488Z,45.9
2022-10-25T16:25:44.735Z,52.8
2022-10-25T16:27:01.035Z,44.7
2022-10-25T16:28:17.319Z,45.6
2022-10-25T16:29:33.627Z,45.1
2022-10-25T16:30:49.917Z,45.2
2022-10-25T16:32:06.208Z,43.9
2022-10-25T16:33:22.510Z,44.6
2022-10-25T16:34:38.787Z,44.4
2022-10-25T16:35:55.082Z,44.3
2022-10-25T16:37:10.397Z,44.4
2022-10-25T16:38:26.707Z,45.1
2022-10-25T16:39:42.985Z,44.7
2022-10-25T16:40:59.280Z,44.6
2022-10-25T16:42:15.577Z,44.7
2022-10-25T16:43:31.879Z,44.6
2022-10-25T16:44:48.162Z,45.2
2022-10-25T16:46:04.462Z,44.6
2022-10-25T16:47:20.761Z,44.6
2022-10-25T16:48:37.038Z,44.4
2022-10-25T16:49:53.335Z,44.7
2022-10-25T16:51:09.637Z,44.7
2022-10-25T16:52:25.934Z,44.6
2022-10-25T16:53:41.238Z,45.2
2022-10-25T16:54:57.545Z,44.4
2022-10-25T16:56:13.827Z,45.1
2022-10-25T16:57:30.122Z,44.4
2022-10-25T16:58:46.426Z,45.2
2022-10-25T17:00:02.716Z,50.4
2022-10-25T17:01:19.015Z,53.9
2022-10-25T17:02:35.301Z,49.4
2022-10-25T17:03:51.594Z,44.7